Time;durP1;ratioP1;P1;durP2;ratioP2;P2;SDS_P1;SDS_P2;PMS_P1;PMS_P2;Temp;Humidity;BMP_temperature;BMP_pressure;BME280_temperature;BME280_humidity;BME280_pressure;Samples;Min_cycle;Max_cycle;Signal;HPM_P1;HPM_P2
2023/03/26 00:01:22;;;;;;;1999.90;999.90;;;11.90;99.90;;;;;;5052620;28;20026;-77
2023/03/26 00:03:52;;;;;;;1999.90;999.90;;;11.90;99.90;;;;;;5052547;28;20029;-71
2023/03/26 00:06:21;;;;;;;1999.90;999.90;;;11.90;99.90;;;;;;5056388;28;20400;-71
2023/03/26 00:08:48;;;;;;;1999.90;999.90;;;11.90;99.90;;;;;;5056188;28;20100;-71
2023/03/26 00:11:16;;;;;;;1999.90;999.90;;;11.90;99.90;;;;;;5041445;28;20071;-72
2023/03/26 00:13:42;;;;;;;1999.90;999.90;;;11.90;99.90;;;;;;5036394;28;20034;-71
2023/03/26 00:16:13;;;;;;;1999.90;999.90;;;11.90;99.90;;;;;;5037051;28;20033;-77
2023/03/26 00:18:41;;;;;;;1999.90;999.90;;;12.00;99.90;;;;;;5056182;28;20025;-71
2023/03/26 00:21:09;;;;;;;1999.90;999.90;;;12.00;99.90;;;;;;5056183;28;20017;-77
2023/03/26 00:23:35;;;;;;;1999.90;999.90;;;12.00;99.90;;;;;;5056425;28;20065;-71
2023/03/26 00:26:02;;;;;;;1999.90;999.90;;;12.00;99.90;;;;;;5056176;28;20440;-71
2023/03/26 00:28:28;;;;;;;1999.90;999.90;;;11.90;99.90;;;;;;5056299;28;20037;-77
2023/03/26 00:31:02;;;;;;;1999.90;999.90;;;12.00;99.90;;;;;;5055748;28;20555;-70
2023/03/26 00:33:30;;;;;;;1999.90;999.90;;;11.90;99.90;;;;;;5055816;28;20033;-71
2023/03/26 00:35:59;;;;;;;1999.90;999.90;;;11.90;99.90;;;;;;5056138;28;20510;-71
2023/03/26 00:38:26;;;;;;;1999.90;999.90;;;11.90;99.90;;;;;;5055185;28;20032;-77
2023/03/26 00:40:53;;;;;;;1999.90;999.90;;;11.90;99.90;;;;;;5055719;28;20515;-70
2023/03/26 00:43:20;;;;;;;1999.90;999.90;;;11.90;99.90;;;;;;5055916;28;20503;-70
2023/03/26 00:45:52;;;;;;;1999.90;999.90;;;11.90;99.90;;;;;;5055626;28;20013;-71
2023/03/26 00:48:19;;;;;;;1999.90;999.90;;;11.90;99.90;;;;;;5055797;28;20049;-71
2023/03/26 00:50:46;;;;;;;1999.90;999.90;;;11.90;99.90;;;;;;5055554;28;20064;-78
2023/03/26 00:53:12;;;;;;;1999.90;999.90;;;12.00;99.90;;;;;;5055838;28;20040;-71
2023/03/26 00:55:43;;;;;;;1999.90;999.90;;;11.90;99.90;;;;;;5055571;28;20380;-78
2023/03/26 00:58:10;;;;;;;1999.90;999.90;;;11.90;99.90;;;;;;5055441;28;20043;-77
2023/03/26 01:00:42;;;;;;;1999.90;999.90;;;11.90;99.90;;;;;;5055179;28;20518;-78
2023/03/26 01:03:12;;;;;;;1999.90;999.90;;;11.80;99.90;;;;;;5055495;28;20029;-78
2023/03/26 01:06:03;;;;;;;1999.90;999.90;;;11.70;99.90;;;;;;5055490;28;20027;-78
2023/03/26 01:08:32;;;;;;;1999.90;999.90;;;11.70;99.90;;;;;;5055096;28;20029;-71
2023/03/26 01:11:06;;;;;;;1999.90;999.90;;;11.80;99.90;;;;;;5042828;28;20025;-71
2023/03/26 01:13:36;;;;;;;1999.90;999.90;;;11.60;99.90;;;;;;5035350;28;20060;-71
2023/03/26 01:16:04;;;;;;;1999.90;999.90;;;11.60;99.90;;;;;;5034704;28;20022;-78
2023/03/26 01:18:32;;;;;;;1999.90;999.90;;;11.50;99.90;;;;;;5034537;28;20404;-71
2023/03/26 01:21:03;;;;;;;1999.90;999.90;;;11.50;99.90;;;;;;5034858;28;20056;-78
2023/03/26 01:23:38;;;;;;;1999.90;999.90;;;11.50;99.90;;;;;;5035116;28;20083;-70
2023/03/26 01:26:33;;;;;;;1999.90;999.90;;;11.40;99.90;;;;;;5034923;28;20057;-77
2023/03/26 01:29:02;;;;;;;1999.90;999.90;;;11.40;99.90;;;;;;5033076;28;20048;-77
2023/03/26 01:31:53;;;;;;;1999.90;999.90;;;11.30;99.90;;;;;;5041269;28;20025;-77
2023/03/26 01:34:39;;;;;;;1999.90;999.90;;;11.20;99.90;;;;;;5054792;28;20029;-71
2023/03/26 01:37:23;;;;;;;1999.90;999.90;;;11.20;99.90;;;;;;5047356;28;20098;-71
2023/03/26 01:40:05;;;;;;;1999.90;999.90;;;11.10;99.90;;;;;;5054034;28;20486;-78
2023/03/26 01:43:00;;;;;;;1999.90;999.90;;;11.10;99.90;;;;;;5054614;28;20067;-70
2023/03/26 01:45:30;;;;;;;1999.90;999.90;;;11.10;99.90;;;;;;5053671;28;20075;-78
2023/03/26 01:47:57;;;;;;;1999.90;999.90;;;11.10;99.90;;;;;;5054542;28;20053;-78
2023/03/26 01:50:22;;;;;;;1999.90;999.90;;;11.10;99.90;;;;;;5054181;28;20112;-71
2023/03/26 01:52:48;;;;;;;1999.90;999.90;;;11.20;99.90;;;;;;5054578;28;20096;-77
2023/03/26 01:55:14;;;;;;;1999.90;999.90;;;11.20;99.90;;;;;;5054524;28;20507;-77
2023/03/26 01:58:25;;;;;;;1999.90;999.90;;;11.20;99.90;;;;;;5052994;28;20113;-77
2023/03/26 02:01:11;;;;;;;1999.90;999.90;;;11.20;99.90;;;;;;5053003;28;20504;-70
2023/03/26 02:03:52;;;;;;;1999.90;999.90;;;11.10;99.90;;;;;;5054342;28;20048;-71
2023/03/26 02:06:25;;;;;;;1999.90;999.90;;;11.10;99.90;;;;;;5054346;28;20029;-71
2023/03/26 02:08:57;;;;;;;1999.90;999.90;;;11.20;99.90;;;;;;5053967;28;20031;-71
2023/03/26 02:11:23;;;;;;;1999.90;999.90;;;11.20;99.90;;;;;;5038266;28;20033;-78
2023/03/26 02:13:50;;;;;;;1999.90;999.90;;;11.30;99.90;;;;;;5034168;28;20021;-77
2023/03/26 02:16:18;;;;;;;1999.90;999.90;;;11.30;99.90;;;;;;5036224;28;20039;-71
2023/03/26 02:18:46;;;;;;;1999.90;999.90;;;11.30;99.90;;;;;;5054108;28;20108;-70
2023/03/26 02:21:13;;;;;;;1999.90;999.90;;;11.20;99.90;;;;;;5054358;28;20053;-78
2023/03/26 02:23:40;;;;;;;1999.90;999.90;;;11.20;99.90;;;;;;5054015;28;20028;-71
2023/03/26 02:26:10;;;;;;;1999.90;999.90;;;11.10;99.90;;;;;;5053801;28;20373;-78
2023/03/26 02:28:36;;;;;;;1999.90;999.90;;;11.20;99.90;;;;;;5053205;28;20553;-71
2023/03/26 02:31:02;;;;;;;1999.90;999.90;;;11.10;99.90;;;;;;5053876;28;20037;-70
2023/03/26 02:33:29;;;;;;;1999.90;999.90;;;11.20;99.90;;;;;;5053839;28;20048;-78
2023/03/26 02:36:03;;;;;;;1999.90;999.90;;;11.20;99.90;;;;;;5053990;28;20443;-70
2023/03/26 02:38:32;;;;;;;1999.90;999.90;;;11.30;99.90;;;;;;5053089;28;20048;-70
2023/03/26 02:40:58;;;;;;;1999.90;999.90;;;11.30;99.90;;;;;;5053298;28;20537;-78
2023/03/26 02:43:24;;;;;;;1999.90;999.90;;;11.40;99.90;;;;;;5053735;28;20032;-71
2023/03/26 02:45:50;;;;;;;1999.90;999.90;;;11.30;99.90;;;;;;5052734;28;20053;-71
2023/03/26 02:48:16;;;;;;;1999.90;999.90;;;11.30;99.90;;;;;;5052134;28;20049;-71
2023/03/26 02:50:42;;;;;;;1999.90;999.90;;;11.20;99.90;;;;;;5053605;28;20037;-70
2023/03/26 02:53:07;;;;;;;1999.90;999.90;;;11.20;99.90;;;;;;5053329;28;20021;-71
2023/03/26 02:55:33;;;;;;;1999.90;999.90;;;11.20;99.90;;;;;;5053724;28;20048;-72
2023/03/26 02:57:59;;;;;;;1999.90;999.90;;;11.30;99.90;;;;;;5053462;28;20028;-77
2023/03/26 03:00:24;;;;;;;1999.90;999.90;;;11.30;99.90;;;;;;5053747;28;20110;-70
2023/03/26 03:02:51;;;;;;;1999.90;999.90;;;11.30;99.90;;;;;;5053312;28;20021;-78
2023/03/26 03:05:18;;;;;;;1999.90;999.90;;;11.40;99.90;;;;;;5053571;28;20108;-71
2023/03/26 03:07:45;;;;;;;1999.90;999.90;;;11.40;99.90;;;;;;5053422;28;20049;-70
2023/03/26 03:10:12;;;;;;;1999.90;999.90;;;11.40;99.90;;;;;;5047136;28;20037;-71
2023/03/26 03:12:40;;;;;;;1999.90;999.90;;;11.30;99.90;;;;;;5033378;28;20030;-78
2023/03/26 03:15:06;;;;;;;1999.90;999.90;;;11.40;99.90;;;;;;5032873;28;20036;-71
2023/03/26 03:17:32;;;;;;;1999.90;999.90;;;11.30;99.90;;;;;;5045187;28;20021;-77
2023/03/26 03:19:57;;;;;;;1999.90;999.90;;;11.40;99.90;;;;;;5053015;28;20029;-71
2023/03/26 03:22:23;;;;;;;1999.90;999.90;;;11.40;99.90;;;;;;5053049;28;20044;-70
2023/03/26 03:24:50;;;;;;;1999.90;999.90;;;11.40;99.90;;;;;;5053053;28;20036;-78
2023/03/26 03:27:18;;;;;;;1999.90;999.90;;;11.30;99.90;;;;;;5052764;28;20488;-70
2023/03/26 03:29:44;;;;;;;1999.90;999.90;;;11.40;99.90;;;;;;5052762;28;20543;-76
2023/03/26 03:32:09;;;;;;;1999.90;999.90;;;11.40;99.90;;;;;;5052468;28;20025;-70
2023/03/26 03:34:37;;;;;;;1999.90;999.90;;;11.40;99.90;;;;;;5051534;28;20443;-71
2023/03/26 03:37:03;;;;;;;1999.90;999.90;;;11.40;99.90;;;;;;5052871;28;20071;-78
2023/03/26 03:39:29;;;;;;;1999.90;999.90;;;11.40;99.90;;;;;;5051976;28;20022;-78
2023/03/26 03:41:55;;;;;;;1999.90;999.90;;;11.40;99.90;;;;;;5052530;28;20120;-70
2023/03/26 03:44:20;;;;;;;1999.90;999.90;;;11.30;99.90;;;;;;5052643;28;20029;-71
2023/03/26 03:46:48;;;;;;;1999.90;999.90;;;11.30;99.90;;;;;;5051259;28;20492;-71
2023/03/26 03:49:14;;;;;;;1999.90;999.90;;;11.30;99.90;;;;;;5052352;28;20103;-74
2023/03/26 03:51:41;;;;;;;1999.90;999.90;;;11.30;99.90;;;;;;5052462;28;20021;-77
2023/03/26 03:54:07;;;;;;;1999.90;999.90;;;11.30;99.90;;;;;;5052420;28;20028;-71
2023/03/26 03:56:32;;;;;;;1999.90;999.90;;;11.30;99.90;;;;;;5052819;28;20021;-77
2023/03/26 03:58:58;;;;;;;1999.90;999.90;;;11.40;99.90;;;;;;5052392;28;20490;-78
2023/03/26 04:01:24;;;;;;;1999.90;999.90;;;11.40;99.90;;;;;;5053137;28;20028;-71
2023/03/26 04:03:50;;;;;;;1999.90;999.90;;;11.30;99.90;;;;;;5052439;28;20407;-77
2023/03/26 04:06:18;;;;;;;1999.90;999.90;;;11.30;99.90;;;;;;5052348;28;20033;-71
2023/03/26 04:08:45;;;;;;;1999.90;999.90;;;11.30;99.90;;;;;;5052414;28;20033;-71
2023/03/26 04:11:12;;;;;;;1999.90;999.90;;;11.30;99.90;;;;;;5037982;28;20060;-70
2023/03/26 04:13:38;;;;;;;1999.90;999.90;;;11.30;99.90;;;;;;5032282;28;20036;-72
2023/03/26 04:16:04;;;;;;;1999.90;999.90;;;11.30;99.90;;;;;;5031991;28;20155;-77
2023/03/26 04:18:31;;;;;;;1999.90;999.90;;;11.30;99.90;;;;;;5051928;28;20112;-71
2023/03/26 04:21:01;;;;;;;1999.90;999.90;;;11.30;99.90;;;;;;5052439;28;20017;-71
2023/03/26 04:23:28;;;;;;;1999.90;999.90;;;11.40;99.90;;;;;;5052178;28;20023;-71
2023/03/26 04:25:55;;;;;;;1999.90;999.90;;;11.40;99.90;;;;;;5052505;28;20100;-72
2023/03/26 04:28:32;;;;;;;1999.90;999.90;;;11.50;99.90;;;;;;5052361;28;20056;-76
2023/03/26 04:30:59;;;;;;;1999.90;999.90;;;11.50;99.90;;;;;;5051914;28;20024;-78
2023/03/26 04:33:30;;;;;;;1999.90;999.90;;;11.30;99.90;;;;;;5052341;28;20028;-70
2023/03/26 04:36:00;;;;;;;1999.90;999.90;;;11.30;99.90;;;;;;5052047;28;20450;-78
2023/03/26 04:38:32;;;;;;;1999.90;999.90;;;11.30;99.90;;;;;;5052210;28;20369;-78
2023/03/26 04:40:59;;;;;;;1999.90;999.90;;;11.20;99.90;;;;;;5051500;28;20013;-77
2023/03/26 04:43:25;;;;;;;1999.90;999.90;;;11.20;99.90;;;;;;5052349;28;20033;-78
2023/03/26 04:45:52;;;;;;;1999.90;999.90;;;11.20;99.90;;;;;;5051993;28;20017;-70
2023/03/26 04:48:19;;;;;;;1999.90;999.90;;;11.10;99.90;;;;;;5052067;28;20598;-77
2023/03/26 04:50:45;;;;;;;1999.90;999.90;;;11.00;99.90;;;;;;5053348;28;20483;-72
2023/03/26 04:53:14;;;;;;;1999.90;999.90;;;11.00;99.90;;;;;;5055618;28;20060;-71
2023/03/26 04:56:37;;;;;;;1999.90;999.90;;;11.00;99.90;;;;;;5055699;28;20025;-77
2023/03/26 04:59:03;;;;;;;1999.90;999.90;;;11.00;99.90;;;;;;5033683;28;20075;-78
2023/03/26 05:01:29;;;;;;;1999.90;999.90;;;11.00;99.90;;;;;;5033755;28;20033;-70
2023/03/26 05:03:57;;;;;;;1999.90;999.90;;;11.00;99.90;;;;;;5046444;28;20037;-72
2023/03/26 05:06:27;;;;;;;1999.90;999.90;;;11.10;99.90;;;;;;5055524;28;20056;-76
2023/03/26 05:08:54;;;;;;;1999.90;999.90;;;11.20;99.90;;;;;;5054136;28;20128;-71
2023/03/26 05:11:20;;;;;;;1999.90;999.90;;;11.10;99.90;;;;;;5055128;28;20103;-76
2023/03/26 05:13:45;;;;;;;1999.90;999.90;;;11.20;99.90;;;;;;5053783;28;20108;-78
2023/03/26 05:16:12;;;;;;;1999.90;999.90;;;11.30;99.90;;;;;;5055193;28;20021;-72
2023/03/26 05:18:37;;;;;;;1999.90;999.90;;;11.20;99.90;;;;;;5055371;28;20392;-77
2023/03/26 05:21:03;;;;;;;1999.90;999.90;;;11.30;99.90;;;;;;5055283;28;20024;-77
2023/03/26 05:23:29;;;;;;;1999.90;999.90;;;11.30;99.90;;;;;;5054888;28;20056;-70
2023/03/26 05:25:55;;;;;;;1999.90;999.90;;;11.30;99.90;;;;;;5055064;28;20033;-78
2023/03/26 05:28:23;;;;;;;1999.90;999.90;;;11.30;99.90;;;;;;5054957;28;20036;-70
2023/03/26 05:30:51;;;;;;;1999.90;999.90;;;11.20;99.90;;;;;;5054755;28;20399;-72
2023/03/26 05:33:18;;;;;;;1999.90;999.90;;;11.10;99.90;;;;;;5054963;28;20021;-71
2023/03/26 05:35:43;;;;;;;1999.90;999.90;;;10.90;99.90;;;;;;5054582;28;20032;-79
2023/03/26 05:38:09;;;;;;;1999.90;999.90;;;10.70;99.90;;;;;;5055021;28;20025;-79
2023/03/26 05:40:35;;;;;;;1999.90;999.90;;;10.10;99.90;;;;;;5054159;28;20025;-70
2023/03/26 05:43:01;;;;;;;1999.90;999.90;;;9.80;99.90;;;;;;5054884;28;20029;-70
2023/03/26 05:45:27;;;;;;;1999.90;999.90;;;9.40;99.90;;;;;;5054633;28;20147;-76
2023/03/26 05:47:53;;;;;;;1999.90;999.90;;;9.20;99.90;;;;;;5054443;28;20052;-78
2023/03/26 05:50:20;;;;;;;1999.90;999.90;;;9.20;99.90;;;;;;5054378;28;20108;-76
2023/03/26 05:52:45;;;;;;;1999.90;999.90;;;9.20;99.90;;;;;;5054575;28;20121;-77
2023/03/26 05:55:12;;;;;;;1999.90;999.90;;;9.30;99.90;;;;;;5054306;28;20056;-77
2023/03/26 05:57:38;;;;;;;1999.90;999.90;;;9.40;99.90;;;;;;5054677;28;20028;-70
2023/03/26 06:00:06;;;;;;;1999.90;999.90;;;9.50;99.90;;;;;;5054477;28;20476;-76
2023/03/26 06:02:33;;;;;;;1999.90;999.90;;;9.70;99.90;;;;;;5053419;28;20024;-70
2023/03/26 06:05:00;;;;;;;1999.90;999.90;;;9.80;99.90;;;;;;5054242;28;20037;-77
2023/03/26 06:07:25;;;;;;;1999.90;999.90;;;9.90;99.90;;;;;;5054368;28;20111;-70
2023/03/26 06:09:52;;;;;;;1999.90;999.90;;;10.00;99.90;;;;;;5050676;28;20053;-71
2023/03/26 06:12:17;;;;;;;1999.90;999.90;;;10.20;99.90;;;;;;5034242;28;20030;-72
2023/03/26 06:14:44;;;;;;;1999.90;999.90;;;10.40;99.90;;;;;;5034390;28;20378;-71
2023/03/26 06:17:10;;;;;;;1999.90;999.90;;;10.50;99.90;;;;;;5043181;28;20024;-77
2023/03/26 06:19:36;;;;;;;1999.90;999.90;;;10.60;99.90;;;;;;5052728;28;20029;-71
2023/03/26 06:22:03;;;;;;;1999.90;999.90;;;10.70;99.90;;;;;;5054068;28;20025;-71
2023/03/26 06:24:28;;;;;;;1999.90;999.90;;;10.60;99.90;;;;;;5053960;28;20064;-79
2023/03/26 06:26:54;;;;;;;1999.90;999.90;;;10.70;99.90;;;;;;5053828;28;20052;-71
2023/03/26 06:29:20;;;;;;;1999.90;999.90;;;10.70;99.90;;;;;;5053920;28;20032;-78
2023/03/26 06:31:45;;;;;;;1999.90;999.90;;;10.80;99.90;;;;;;5053400;28;20078;-78
2023/03/26 06:34:11;;;;;;;1999.90;999.90;;;10.90;99.90;;;;;;5053944;28;20033;-78
2023/03/26 06:36:36;;;;;;;1999.90;999.90;;;10.80;99.90;;;;;;5053692;28;20025;-71
2023/03/26 06:39:03;;;;;;;1999.90;999.90;;;10.80;99.90;;;;;;5053690;28;20122;-70
2023/03/26 06:41:29;;;;;;;1999.90;999.90;;;10.80;99.90;;;;;;5053034;28;20044;-79
2023/03/26 06:43:55;;;;;;;1999.90;999.90;;;10.80;99.90;;;;;;5053541;28;20028;-71
2023/03/26 06:46:22;;;;;;;1999.90;999.90;;;10.80;99.90;;;;;;5053377;28;20029;-71
2023/03/26 06:48:48;;;;;;;1999.90;999.90;;;10.90;99.90;;;;;;5053575;28;20049;-71
2023/03/26 06:51:13;;;;;;;1999.90;999.90;;;10.90;99.90;;;;;;5053492;28;20029;-70
2023/03/26 06:53:39;;;;;;;1999.90;999.90;;;10.90;99.90;;;;;;5052007;28;20075;-71
2023/03/26 06:56:05;;;;;;;1999.90;999.90;;;10.90;99.90;;;;;;5053378;28;20029;-71
2023/03/26 06:58:31;;;;;;;1999.90;999.90;;;11.00;99.90;;;;;;5053381;28;20027;-71
2023/03/26 07:00:56;;;;;;;1999.90;999.90;;;11.00;99.90;;;;;;5053101;28;20108;-71
2023/03/26 07:03:22;;;;;;;1999.90;999.90;;;11.10;99.90;;;;;;5053268;28;20025;-72
2023/03/26 07:05:48;;;;;;;1999.90;999.90;;;11.10;99.90;;;;;;5053271;28;20079;-70
2023/03/26 07:08:14;;;;;;;1999.90;999.90;;;11.20;99.90;;;;;;5053293;28;20520;-72
2023/03/26 07:10:40;;;;;;;1999.90;999.90;;;11.20;99.90;;;;;;5041566;28;20427;-70
2023/03/26 07:13:06;;;;;;;1999.90;999.90;;;11.40;99.90;;;;;;5032824;28;20100;-71
2023/03/26 07:15:31;;;;;;;1999.90;999.90;;;11.40;99.90;;;;;;5033085;28;20076;-70
2023/03/26 07:17:57;;;;;;;1999.90;999.90;;;11.50;99.90;;;;;;5047440;28;20036;-70
2023/03/26 07:20:23;;;;;;;1999.90;999.90;;;11.60;99.90;;;;;;5053141;28;20108;-71
2023/03/26 07:22:50;;;;;;;1999.90;999.90;;;11.60;99.90;;;;;;5052942;28;20078;-71
2023/03/26 07:25:17;;;;;;;1999.90;999.90;;;11.60;99.90;;;;;;5052788;28;20033;-71
2023/03/26 07:28:15;;;;;;;1999.90;999.90;;;11.70;99.90;;;;;;5052773;28;20028;-71
2023/03/26 07:30:51;;;;;;;1999.90;999.90;;;11.80;99.90;;;;;;5052650;28;20112;-71
2023/03/26 07:33:41;;;;;;;1999.90;999.90;;;11.80;99.90;;;;;;5052605;28;20057;-71
2023/03/26 07:36:16;;;;;;;1999.90;999.90;;;11.80;99.90;;;;;;5052739;28;20443;-71
2023/03/26 07:38:59;;;;;;;1999.90;999.90;;;11.90;99.90;;;;;;5052770;28;20017;-71
2023/03/26 07:41:42;;;;;;;1999.90;999.90;;;12.00;99.90;;;;;;5051922;28;20021;-71
2023/03/26 07:44:26;;;;;;;;;;;12.00;99.90;;;;;;5053123;28;20083;-77
2023/03/26 07:46:53;;;;;;;1999.90;999.90;;;12.00;99.90;;;;;;5052970;28;19931;-71
2023/03/26 07:49:19;;;;;;;1999.90;999.90;;;12.10;99.90;;;;;;5052239;28;20049;-75
2023/03/26 07:51:45;;;;;;;1999.90;999.90;;;12.30;99.90;;;;;;5052483;28;20032;-71
2023/03/26 07:54:11;;;;;;;1999.90;999.90;;;12.40;99.90;;;;;;5052512;28;20078;-71
2023/03/26 07:56:53;;;;;;;1999.90;999.90;;;12.50;99.90;;;;;;5052520;28;20017;-79
2023/03/26 07:59:30;;;;;;;1999.90;999.90;;;12.60;99.90;;;;;;5052529;28;20021;-71
2023/03/26 08:02:24;;;;;;;1999.90;999.90;;;12.80;99.90;;;;;;5052475;28;20071;-71
2023/03/26 08:04:49;;;;;;;1999.90;999.90;;;14.40;99.90;;;;;;5052463;28;20021;-71
2023/03/26 08:07:47;;;;;;;1999.90;999.90;;;14.80;99.90;;;;;;5052440;28;20039;-71
2023/03/26 08:10:21;;;;;;;1999.90;999.90;;;15.40;99.90;;;;;;5045246;28;20041;-78
2023/03/26 08:12:53;;;;;;;1999.90;999.90;;;16.10;99.90;;;;;;5032535;28;20036;-79
2023/03/26 08:15:31;;;;;;;1999.90;999.90;;;16.40;99.90;;;;;;5032551;28;20028;-71
2023/03/26 08:18:02;;;;;;;1999.90;999.90;;;15.70;99.90;;;;;;5047973;28;20108;-71
2023/03/26 08:20:33;;;;;;;1999.90;999.90;;;14.30;99.90;;;;;;5052618;28;20025;-71
2023/03/26 08:23:15;;;;;;;1999.90;999.90;;;13.40;99.90;;;;;;5051029;28;20021;-71
2023/03/26 08:25:55;;;;;;;1999.90;999.90;;;15.30;99.90;;;;;;5053973;28;20024;-71
2023/03/26 08:28:47;;;;;;;1999.90;999.90;;;14.80;99.90;;;;;;5056225;28;20033;-78
2023/03/26 08:31:16;;;;;;;1999.90;999.90;;;14.40;99.90;;;;;;5055841;28;20021;-72
2023/03/26 08:33:42;;;;;;;1999.90;999.90;;;14.10;99.90;;;;;;5056082;28;20021;-72
2023/03/26 08:36:08;;;;;;;1999.90;999.90;;;14.50;99.90;;;;;;5054730;28;20403;-72
2023/03/26 08:38:34;;;;;;;1999.90;999.90;;;14.40;99.90;;;;;;5054807;28;20036;-79
2023/03/26 08:41:39;;;;;;;1999.90;999.90;;;14.50;99.90;;;;;;5054652;28;20033;-72
2023/03/26 08:44:29;;;;;;;1999.90;999.90;;;14.50;99.90;;;;;;5056070;28;20028;-72
2023/03/26 08:47:09;;;;;;;1999.90;999.90;;;15.70;99.90;;;;;;5056162;28;20068;-72
2023/03/26 08:49:41;;;;;;;1999.90;999.90;;;16.80;99.90;;;;;;5055686;28;20049;-73
2023/03/26 08:52:34;;;;;;;1999.90;999.90;;;16.90;99.90;;;;;;5056080;28;20021;-79
2023/03/26 08:55:14;;;;;;;1999.90;999.90;;;17.40;99.90;;;;;;5055759;28;20028;-79
2023/03/26 08:57:45;;;;;;;1999.90;999.90;;;16.60;99.90;;;;;;5055905;28;20064;-79
2023/03/26 09:00:21;;;;;;;1999.90;999.90;;;16.30;99.90;;;;;;5055578;28;20017;-72
2023/03/26 09:03:01;;;;;;;1999.90;999.90;;;16.30;99.90;;;;;;5055879;28;20029;-80
2023/03/26 09:06:08;;;;;;;1999.90;999.90;;;15.90;99.90;;;;;;5055742;28;20025;-75
2023/03/26 09:08:54;;;;;;;1999.90;999.90;;;15.30;99.90;;;;;;5033484;28;20488;-72
2023/03/26 09:11:47;;;;;;;1999.90;999.90;;;14.80;99.90;;;;;;5054704;28;20044;-78
2023/03/26 09:14:54;;;;;;;1999.90;999.90;;;14.10;99.90;;;;;;5055208;28;20468;-79
2023/03/26 09:17:38;;;;;;;1999.90;999.90;;;13.70;99.90;;;;;;5055405;28;20458;-76
2023/03/26 09:20:47;;;;;;;1999.90;999.90;;;13.40;99.90;;;;;;5053910;28;20078;-73
2023/03/26 09:23:36;;;;;;;1999.90;999.90;;;13.20;99.90;;;;;;5055026;28;20025;-71
2023/03/26 09:26:28;;;;;;;1999.90;999.90;;;12.90;99.90;;;;;;5055208;28;20055;-72
2023/03/26 09:28:59;;;;;;;1999.90;999.90;;;12.80;99.90;;;;;;5044684;28;20094;-78
2023/03/26 09:31:46;;;;;;;1999.90;999.90;;;12.70;99.90;;;;;;5054780;28;20419;-78
2023/03/26 09:34:35;;;;;;;1999.90;999.90;;;12.50;99.90;;;;;;5053580;28;20480;-79
2023/03/26 09:37:34;;;;;;;1999.90;999.90;;;12.40;99.90;;;;;;5054568;28;20454;-71
2023/03/26 09:40:17;;;;;;;1999.90;999.90;;;12.30;99.90;;;;;;5054751;28;20484;-74
2023/03/26 09:42:45;;;;;;;1999.90;999.90;;;12.20;99.90;;;;;;5054058;28;20033;-72
2023/03/26 09:45:21;;;;;;;1999.90;999.90;;;12.10;99.90;;;;;;5054780;28;20056;-72
2023/03/26 09:48:04;;;;;;;1999.90;999.90;;;12.10;99.90;;;;;;5034821;28;20091;-79
2023/03/26 09:51:00;;;;;;;1999.90;999.90;;;12.30;99.90;;;;;;5034611;28;20034;-73
2023/03/26 09:53:49;;;;;;;1999.90;999.90;;;13.20;99.90;;;;;;5034980;28;20439;-72
2023/03/26 09:56:14;;;;;;;1999.90;999.90;;;14.10;99.90;;;;;;5035023;28;20017;-78
2023/03/26 09:58:52;;;;;;;1999.90;999.90;;;13.70;99.90;;;;;;5034658;28;20032;-79
2023/03/26 10:01:50;;;;;;;1999.90;999.90;;;13.80;99.90;;;;;;5034456;28;20018;-80
2023/03/26 10:04:39;;;;;;;1999.90;999.90;;;14.10;99.90;;;;;;4998815;28;20042;-75
2023/03/26 10:07:37;;;;;;;1999.90;999.90;;;14.00;99.90;;;;;;5033061;28;20029;-72
2023/03/26 10:10:50;;;;;;;1999.90;999.90;;;13.80;99.90;;;;;;5039345;28;20090;-81
2023/03/26 10:13:30;;;;;;;1999.90;999.90;;;13.70;99.90;;;;;;5038168;28;20463;-82
2023/03/26 10:16:11;;;;;;;1999.90;999.90;;;13.60;99.90;;;;;;5054212;28;20039;-73
2023/03/26 10:19:01;;;;;;;1999.90;999.90;;;13.70;99.90;;;;;;5033697;28;20057;-72
2023/03/26 10:21:45;;;;;;;1999.90;999.90;;;13.80;99.90;;;;;;5034963;28;20025;-79
2023/03/26 10:24:55;;;;;;;1999.90;999.90;;;13.80;99.90;;;;;;5034740;28;20389;-80
2023/03/26 10:27:36;;;;;;;1999.90;999.90;;;13.70;99.90;;;;;;5001997;28;20112;-79
2023/03/26 10:30:33;;;;;;;1999.90;999.90;;;13.80;99.90;;;;;;5034344;28;20033;-79
2023/03/26 10:33:24;;;;;;;1999.90;999.90;;;14.00;99.90;;;;;;5052741;28;20021;-79
2023/03/26 10:36:09;;;;;;;1999.90;999.90;;;14.00;99.90;;;;;;5053761;28;20041;-79
2023/03/26 10:39:00;;;;;;;1999.90;999.90;;;14.10;99.90;;;;;;5054276;28;20060;-80
2023/03/26 10:41:41;;;;;;;1999.90;999.90;;;13.70;99.90;;;;;;5049552;28;20511;-73
2023/03/26 10:44:27;;;;;;;1999.90;999.90;;;13.60;99.90;;;;;;5053392;28;20104;-72
2023/03/26 10:47:12;;;;;;;1999.90;999.90;;;14.00;99.90;;;;;;5053856;28;20381;-79
2023/03/26 10:50:15;;;;;;;1999.90;999.90;;;14.40;99.90;;;;;;5053308;28;20403;-78
2023/03/26 10:52:45;;;;;;;1999.90;999.90;;;14.10;99.90;;;;;;5053414;28;20061;-79
2023/03/26 10:55:21;;;;;;;1999.90;999.90;;;14.20;99.90;;;;;;5053604;28;20017;-71
2023/03/26 10:57:50;;;;;;;1999.90;999.90;;;14.20;99.90;;;;;;5053860;28;20028;-72
2023/03/26 11:00:25;;;;;;;1999.90;999.90;;;14.50;99.90;;;;;;5053964;28;20112;-80
2023/03/26 11:03:10;;;;;;;1999.90;999.90;;;14.10;99.90;;;;;;5051606;28;20029;-80
2023/03/26 11:05:45;;;;;;;1999.90;999.90;;;13.70;99.90;;;;;;5053720;28;20029;-82
2023/03/26 11:08:32;;;;;;;1999.90;999.90;;;13.40;99.90;;;;;;5053662;28;20029;-75
2023/03/26 11:11:04;;;;;;;1999.90;999.90;;;13.20;99.90;;;;;;5040644;28;20052;-71
2023/03/26 11:13:52;;;;;;;1999.90;999.90;;;13.40;99.90;;;;;;5033431;28;20424;-80
2023/03/26 11:16:24;;;;;;;1999.90;999.90;;;13.30;99.90;;;;;;5035459;28;20392;-80
2023/03/26 11:19:15;;;;;;;1999.90;999.90;;;13.10;99.90;;;;;;5053306;28;20075;-72
2023/03/26 11:22:07;;;;;;;1999.90;999.90;;;13.20;99.90;;;;;;5034162;28;20029;-72
2023/03/26 11:24:53;;;;;;;1999.90;999.90;;;12.70;99.90;;;;;;5053065;28;20480;-72
2023/03/26 11:27:40;;;;;;;1999.90;999.90;;;12.50;99.90;;;;;;5053042;28;20028;-79
2023/03/26 11:30:33;;;;;;;1999.90;999.90;;;12.70;99.90;;;;;;5053070;28;20033;-80
2023/03/26 11:33:02;;;;;;;1999.90;999.90;;;12.80;99.90;;;;;;5051418;28;20021;-72
2023/03/26 11:35:32;;;;;;;1999.90;999.90;;;12.90;99.90;;;;;;5052661;28;20025;-72
2023/03/26 11:38:21;;;;;;;1999.90;999.90;;;12.90;99.90;;;;;;5052671;28;20480;-71
2023/03/26 11:40:51;;;;;;;1999.90;999.90;;;12.60;99.90;;;;;;5050906;28;20029;-73
2023/03/26 11:43:22;;;;;;;1999.90;999.90;;;12.60;99.90;;;;;;5050836;28;20025;-71
2023/03/26 11:45:50;;;;;;;1999.90;999.90;;;13.00;99.90;;;;;;5052842;28;20055;-71
2023/03/26 11:48:31;;;;;;;1999.90;999.90;;;12.90;99.90;;;;;;5052566;28;20045;-72
2023/03/26 11:51:03;;;;;;;1999.90;999.90;;;12.50;99.90;;;;;;5053037;28;20116;-78
2023/03/26 11:53:33;;;;;;;1999.90;999.90;;;12.10;99.90;;;;;;5052947;28;20063;-76
2023/03/26 11:56:07;;;;;;;1999.90;999.90;;;11.80;99.90;;;;;;5052713;28;20070;-78
2023/03/26 11:58:48;;;;;;;1999.90;999.90;;;11.50;99.90;;;;;;5052402;28;20108;-78
2023/03/26 12:01:29;;;;;;;1999.90;999.90;;;11.30;99.90;;;;;;5054995;28;20025;-72
2023/03/26 12:04:12;;;;;;;1999.90;999.90;;;11.10;99.90;;;;;;5055375;28;20515;-72
2023/03/26 12:06:38;;;;;;;1999.90;999.90;;;10.90;99.90;;;;;;5056389;28;20020;-71
2023/03/26 12:09:15;;;;;;;1999.90;999.90;;;10.80;99.90;;;;;;5056608;28;20103;-77
2023/03/26 12:11:41;;;;;;;1999.90;999.90;;;10.80;99.90;;;;;;5056399;28;20078;-72
2023/03/26 12:14:07;;;;;;;1999.90;999.90;;;10.70;99.90;;;;;;5056350;28;20086;-71
2023/03/26 12:16:33;;;;;;;1999.90;999.90;;;10.80;99.90;;;;;;5056417;28;20479;-76
2023/03/26 12:19:18;;;;;;;1999.90;999.90;;;10.80;99.90;;;;;;5056341;28;20051;-76
2023/03/26 12:21:46;;;;;;;1999.90;999.90;;;10.80;99.90;;;;;;5056233;28;20032;-77
2023/03/26 12:24:30;;;;;;;1999.90;999.90;;;10.70;99.90;;;;;;5056450;28;20024;-77
2023/03/26 12:27:01;;;;;;;1999.90;999.90;;;10.80;99.90;;;;;;5056161;28;20021;-69
2023/03/26 12:29:33;;;;;;;1999.90;999.90;;;10.70;99.90;;;;;;5056213;28;20479;-77
2023/03/26 12:32:12;;;;;;;1999.90;999.90;;;10.70;99.90;;;;;;5055950;28;20036;-77